createdAt,value
2019-02-15T00:00:57.798Z,-0.65
2019-02-15T00:03:27.138Z,-0.61
2019-02-15T00:05:56.652Z,-0.62
2019-02-15T00:08:25.971Z,-0.62
2019-02-15T00:10:55.363Z,-0.65
2019-02-15T00:13:24.751Z,-0.70
2019-02-15T00:15:54.163Z,-0.76
2019-02-15T00:18:30.575Z,-0.71
2019-02-15T00:21:17.576Z,-0.67
2019-02-15T00:23:46.939Z,-0.71
2019-02-15T00:26:16.763Z,-0.80
2019-02-15T00:28:46.427Z,-0.87
2019-02-15T00:31:18.584Z,-0.87
2019-02-15T00:33:47.878Z,-0.81
2019-02-15T00:36:17.243Z,-0.67
2019-02-15T00:38:46.526Z,-0.61
2019-02-15T00:41:15.819Z,-0.62
2019-02-15T00:43:45.063Z,-0.71
2019-02-15T00:46:45.241Z,-0.76
2019-02-15T00:49:21.599Z,-0.81
2019-02-15T00:52:13.151Z,-0.82
2019-02-15T00:55:07.158Z,-0.83
2019-02-15T00:57:58.392Z,-0.85
2019-02-15T01:00:45.380Z,-0.87
2019-02-15T01:03:32.489Z,-0.93
2019-02-15T01:06:09.738Z,-0.91
2019-02-15T01:08:59.680Z,-0.91
2019-02-15T01:11:37.562Z,-0.88
2019-02-15T01:14:07.006Z,-0.84
2019-02-15T01:16:36.434Z,-0.81
2019-02-15T01:19:05.710Z,-0.82
2019-02-15T01:21:36.837Z,-0.81
2019-02-15T01:24:06.772Z,-0.84
2019-02-15T01:26:44.293Z,-0.91
2019-02-15T01:29:35.363Z,-0.98
2019-02-15T01:32:27.952Z,-1.00
2019-02-15T01:35:09.441Z,-0.97
2019-02-15T01:38:08.461Z,-0.98
2019-02-15T01:40:55.247Z,-1.05
2019-02-15T01:43:58.533Z,-1.06
2019-02-15T01:46:43.639Z,-1.05
2019-02-15T01:49:13.529Z,-1.05
2019-02-15T01:51:42.965Z,-1.06
2019-02-15T01:54:12.306Z,-1.11
2019-02-15T01:56:41.672Z,-1.17
2019-02-15T01:59:11.198Z,-1.24
2019-02-15T02:01:40.645Z,-1.29
2019-02-15T02:04:10.250Z,-1.19
2019-02-15T02:06:39.603Z,-1.05
2019-02-15T02:09:09.104Z,-1.06
2019-02-15T02:11:38.798Z,-1.15
2019-02-15T02:14:08.238Z,-1.22
2019-02-15T02:16:37.644Z,-1.33
2019-02-15T02:19:06.983Z,-1.40
2019-02-15T02:21:37.013Z,-1.37
2019-02-15T02:24:06.269Z,-1.25
2019-02-15T02:26:35.597Z,-1.26
2019-02-15T02:29:04.958Z,-1.35
2019-02-15T02:31:34.228Z,-1.43
2019-02-15T02:34:03.480Z,-1.48
2019-02-15T02:36:54.579Z,-1.49
2019-02-15T02:39:24.108Z,-1.48
2019-02-15T02:41:53.541Z,-1.50
2019-02-15T02:44:22.937Z,-1.50
2019-02-15T02:46:52.291Z,-1.48
2019-02-15T02:49:21.695Z,-1.39
2019-02-15T02:51:50.987Z,-1.30
2019-02-15T02:54:20.350Z,-1.29
2019-02-15T02:56:49.715Z,-1.31
2019-02-15T02:59:18.944Z,-1.30
2019-02-15T03:01:48.334Z,-1.29
2019-02-15T03:04:18.035Z,-1.36
2019-02-15T03:06:47.513Z,-1.43
2019-02-15T03:09:16.880Z,-1.49
2019-02-15T03:11:46.177Z,-1.53
2019-02-15T03:14:15.491Z,-1.58
2019-02-15T03:16:44.934Z,-1.62
2019-02-15T03:19:14.340Z,-1.66
2019-02-15T03:21:43.638Z,-1.71
2019-02-15T03:24:13.019Z,-1.72
2019-02-15T03:26:42.797Z,-1.71
2019-02-15T03:29:12.046Z,-1.69
2019-02-15T03:31:41.462Z,-1.64
2019-02-15T03:34:10.856Z,-1.57
2019-02-15T03:37:04.239Z,-1.52
2019-02-15T03:39:39.603Z,-1.57
2019-02-15T03:42:11.069Z,-1.60
2019-02-15T03:44:40.481Z,-1.61
2019-02-15T03:47:09.862Z,-1.61
2019-02-15T03:49:39.129Z,-1.64
2019-02-15T03:52:08.413Z,-1.68
2019-02-15T03:54:37.933Z,-1.71
2019-02-15T03:57:07.511Z,-1.72
2019-02-15T03:59:37.095Z,-1.75
2019-02-15T04:02:06.439Z,-1.78
2019-02-15T04:04:35.891Z,-1.77
2019-02-15T04:07:05.424Z,-1.74
2019-02-15T04:09:34.907Z,-1.74
2019-02-15T04:12:04.315Z,-1.75
2019-02-15T04:14:33.669Z,-1.75
2019-02-15T04:17:02.998Z,-1.75
2019-02-15T04:19:32.292Z,-1.75
2019-02-15T04:22:02.120Z,-1.74
2019-02-15T04:24:31.404Z,-1.73
2019-02-15T04:27:00.962Z,-1.74
2019-02-15T04:29:30.230Z,-1.75
2019-02-15T04:31:59.593Z,-1.74
2019-02-15T04:34:28.992Z,-1.74
2019-02-15T04:36:58.346Z,-1.73
2019-02-15T04:39:27.595Z,-1.70
2019-02-15T04:41:56.969Z,-1.67
2019-02-15T04:44:26.391Z,-1.66
2019-02-15T04:46:55.735Z,-1.66
2019-02-15T04:49:25.143Z,-1.68
2019-02-15T04:51:54.588Z,-1.67
2019-02-15T04:54:24.044Z,-1.67
2019-02-15T04:56:53.416Z,-1.62
2019-02-15T04:59:23.114Z,-1.57
2019-02-15T05:01:52.561Z,-1.54
2019-02-15T05:04:22.307Z,-1.54
2019-02-15T05:06:51.621Z,-1.57
2019-02-15T05:09:21.060Z,-1.60
2019-02-15T05:11:51.176Z,-1.63
2019-02-15T05:14:20.430Z,-1.65
2019-02-15T05:16:49.967Z,-1.63
2019-02-15T05:19:19.333Z,-1.53
2019-02-15T05:21:48.692Z,-1.42
2019-02-15T05:24:18.080Z,-1.36
2019-02-15T05:26:47.499Z,-1.33
2019-02-15T05:29:16.881Z,-1.32
2019-02-15T05:31:46.231Z,-1.33
2019-02-15T05:34:15.560Z,-1.28
2019-02-15T05:36:44.956Z,-1.21
2019-02-15T05:39:14.295Z,-1.15
2019-02-15T05:41:43.702Z,-1.18
2019-02-15T05:44:13.122Z,-1.21
2019-02-15T05:46:42.430Z,-1.25
2019-02-15T05:49:11.884Z,-1.29
2019-02-15T05:51:41.205Z,-1.33
2019-02-15T05:54:10.814Z,-1.36
2019-02-15T05:56:40.096Z,-1.35
2019-02-15T05:59:09.890Z,-1.27
2019-02-15T06:01:39.639Z,-1.21
2019-02-15T06:04:09.346Z,-1.15
2019-02-15T06:06:38.719Z,-1.14
2019-02-15T06:09:08.225Z,-1.12
2019-02-15T06:11:37.612Z,-1.10
2019-02-15T06:14:06.974Z,-1.02
2019-02-15T06:16:36.510Z,-0.92
2019-02-15T06:19:05.942Z,-0.82
2019-02-15T06:21:35.325Z,-0.75
2019-02-15T06:24:04.860Z,-0.74
2019-02-15T06:26:34.173Z,-0.75
2019-02-15T06:29:03.540Z,-0.77
2019-02-15T06:31:32.935Z,-0.76
2019-02-15T06:34:02.253Z,-0.71
2019-02-15T06:36:35.732Z,-0.65
2019-02-15T06:39:07.493Z,-0.62
2019-02-15T06:41:36.792Z,-0.58
2019-02-15T06:44:06.155Z,-0.53
2019-02-15T06:46:35.585Z,-0.52
2019-02-15T06:49:04.944Z,-0.47
2019-02-15T06:51:34.306Z,-0.43
2019-02-15T06:54:03.674Z,-0.39
2019-02-15T06:56:33.055Z,-0.41
2019-02-15T06:59:17.304Z,-0.47
2019-02-15T07:01:54.854Z,-0.47
2019-02-15T07:04:37.539Z,-0.43
2019-02-15T07:07:06.841Z,-0.37
2019-02-15T07:09:36.165Z,-0.27
2019-02-15T07:12:05.499Z,-0.19
2019-02-15T07:14:34.872Z,-0.20
2019-02-15T07:17:04.307Z,-0.21
2019-02-15T07:19:34.458Z,-0.20
2019-02-15T07:22:03.759Z,-0.18
2019-02-15T07:24:33.125Z,-0.10
2019-02-15T07:27:04.567Z,-0.04
2019-02-15T07:29:34.254Z,-0.02
2019-02-15T07:32:03.575Z,0.03
2019-02-15T07:34:32.890Z,0.12
2019-02-15T07:37:02.264Z,0.22
2019-02-15T07:39:31.534Z,0.38
2019-02-15T07:42:00.949Z,0.51
2019-02-15T07:44:30.441Z,0.61
2019-02-15T07:46:59.793Z,0.71
2019-02-15T07:49:29.127Z,0.83
2019-02-15T07:51:58.435Z,0.95
2019-02-15T07:54:27.858Z,1.10
2019-02-15T07:56:57.128Z,1.23
2019-02-15T07:59:26.484Z,1.39
2019-02-15T08:02:01.663Z,1.49
2019-02-15T08:04:26.773Z,1.58
2019-02-15T08:06:56.000Z,1.68
2019-02-15T08:09:32.782Z,1.75
2019-02-15T08:12:02.003Z,1.84
2019-02-15T08:14:31.198Z,1.89
2019-02-15T08:17:00.431Z,1.96
2019-02-15T08:19:31.793Z,2.03
2019-02-15T08:22:01.005Z,2.14
2019-02-15T08:24:30.250Z,2.23
2019-02-15T08:26:59.467Z,2.36
2019-02-15T08:29:28.794Z,2.42
2019-02-15T08:31:58.002Z,2.51
2019-02-15T08:34:27.345Z,2.61
2019-02-15T08:36:56.486Z,2.72
2019-02-15T08:39:25.826Z,2.78
2019-02-15T08:42:01.228Z,2.85
2019-02-15T08:44:26.196Z,2.96
2019-02-15T08:46:55.682Z,3.09
2019-02-15T08:49:43.997Z,3.25
2019-02-15T08:52:13.299Z,3.38
2019-02-15T08:54:42.550Z,3.47
2019-02-15T08:57:11.793Z,3.59
2019-02-15T08:59:41.035Z,3.68
2019-02-15T09:02:21.799Z,3.80
2019-02-15T09:05:21.480Z,3.90
2019-02-15T09:08:09.833Z,3.95
2019-02-15T09:10:58.093Z,4.03
2019-02-15T09:13:27.365Z,4.17
2019-02-15T09:15:56.565Z,4.28
2019-02-15T09:18:25.810Z,4.33
2019-02-15T09:20:55.146Z,4.44
2019-02-15T09:23:24.384Z,4.50
2019-02-15T09:25:53.634Z,4.62
2019-02-15T09:28:30.519Z,4.73
2019-02-15T09:30:59.920Z,4.81
2019-02-15T09:33:29.195Z,4.88
2019-02-15T09:35:58.415Z,4.97
2019-02-15T09:38:27.613Z,5.04
2019-02-15T09:40:57.947Z,5.15
2019-02-15T09:43:27.197Z,5.30
2019-02-15T09:45:56.452Z,5.43
2019-02-15T09:48:25.678Z,5.47
2019-02-15T09:50:55.007Z,5.56
2019-02-15T09:53:24.350Z,5.69
2019-02-15T09:55:54.294Z,5.86
2019-02-15T09:58:25.963Z,5.97
2019-02-15T10:00:58.554Z,6.05
2019-02-15T10:03:30.668Z,6.07
2019-02-15T10:05:59.949Z,6.13
2019-02-15T10:08:29.212Z,6.26
2019-02-15T10:10:59.497Z,6.31
2019-02-15T10:13:28.720Z,6.40
2019-02-15T10:15:57.942Z,6.56
2019-02-15T10:18:27.226Z,6.61
2019-02-15T10:20:56.620Z,6.68
2019-02-15T10:23:25.899Z,6.77
2019-02-15T10:25:56.503Z,6.83
2019-02-15T10:28:25.780Z,6.88
2019-02-15T10:30:56.019Z,6.92
2019-02-15T10:33:25.405Z,6.98
2019-02-15T10:35:54.725Z,7.12
2019-02-15T10:38:24.021Z,7.27
2019-02-15T10:40:53.576Z,7.39
2019-02-15T10:43:22.936Z,7.59
2019-02-15T10:45:52.398Z,7.69
2019-02-15T10:48:21.608Z,7.78
2019-02-15T10:50:50.932Z,7.88
2019-02-15T10:53:20.174Z,8.07
2019-02-15T10:55:49.432Z,8.35
2019-02-15T10:58:18.753Z,8.51
2019-02-15T11:00:48.034Z,8.47
2019-02-15T11:03:17.381Z,8.56
2019-02-15T11:05:46.741Z,8.76
2019-02-15T11:08:15.926Z,8.85
2019-02-15T11:10:45.126Z,8.87
2019-02-15T11:13:14.452Z,9.00
2019-02-15T11:15:43.640Z,9.17
2019-02-15T11:18:13.051Z,9.29
2019-02-15T11:20:42.288Z,9.38
2019-02-15T11:23:12.622Z,9.43
2019-02-15T11:25:41.950Z,9.48
2019-02-15T11:28:11.196Z,9.57
2019-02-15T11:30:40.474Z,9.75
2019-02-15T11:33:09.995Z,9.98
2019-02-15T11:35:39.339Z,10.18
2019-02-15T11:38:08.671Z,10.37
2019-02-15T11:40:37.981Z,10.45
2019-02-15T11:43:07.351Z,10.47
2019-02-15T11:45:36.580Z,10.66
2019-02-15T11:48:05.969Z,10.87
2019-02-15T11:50:35.351Z,11.16
2019-02-15T11:53:04.811Z,11.33
2019-02-15T11:55:34.127Z,11.38
2019-02-15T11:58:03.421Z,11.46
2019-02-15T12:00:34.369Z,11.59
2019-02-15T12:03:03.723Z,11.64
2019-02-15T12:05:32.999Z,11.78
2019-02-15T12:08:02.365Z,12.03
2019-02-15T12:10:31.654Z,12.17
2019-02-15T12:13:00.893Z,12.22
2019-02-15T12:15:30.193Z,12.13
2019-02-15T12:17:59.908Z,12.01
2019-02-15T12:20:29.225Z,12.28
2019-02-15T12:22:58.626Z,12.50
2019-02-15T12:25:27.851Z,12.69
2019-02-15T12:27:57.148Z,12.69
2019-02-15T12:30:26.425Z,12.54
2019-02-15T12:32:55.873Z,12.43
2019-02-15T12:35:25.123Z,12.41
2019-02-15T12:37:54.355Z,12.58
2019-02-15T12:40:23.699Z,12.82
2019-02-15T12:42:53.151Z,13.00
2019-02-15T12:45:22.426Z,12.98
2019-02-15T12:47:51.646Z,12.89
2019-02-15T12:50:20.900Z,13.04
2019-02-15T12:52:50.101Z,13.05
2019-02-15T12:55:19.422Z,13.12
2019-02-15T12:57:48.648Z,13.30
2019-02-15T13:00:37.058Z,13.52
2019-02-15T13:03:09.520Z,13.63
2019-02-15T13:05:57.824Z,13.52
2019-02-15T13:08:29.239Z,13.65
2019-02-15T13:10:58.739Z,13.72
2019-02-15T13:13:29.077Z,13.74
2019-02-15T13:15:58.312Z,13.77
2019-02-15T13:18:27.526Z,13.86
2019-02-15T13:20:56.958Z,13.87
2019-02-15T13:23:26.243Z,13.87
2019-02-15T13:25:55.573Z,13.92
2019-02-15T13:28:24.752Z,14.05
2019-02-15T13:30:54.252Z,14.17
2019-02-15T13:33:23.578Z,14.21
2019-02-15T13:35:52.934Z,14.44
2019-02-15T13:38:22.363Z,14.62
2019-02-15T13:40:52.571Z,14.77
2019-02-15T13:43:22.016Z,14.80
2019-02-15T13:45:51.334Z,14.85
2019-02-15T13:48:20.569Z,15.02
2019-02-15T13:50:49.897Z,15.18
2019-02-15T13:53:20.367Z,15.21
2019-02-15T13:55:49.955Z,15.35
2019-02-15T13:58:19.300Z,15.50
2019-02-15T14:00:48.531Z,15.76
2019-02-15T14:03:17.899Z,15.95
2019-02-15T14:05:47.483Z,16.62
2019-02-15T14:08:16.806Z,18.97
2019-02-15T14:10:46.054Z,21.73
2019-02-15T14:13:15.423Z,24.11
2019-02-15T14:15:44.849Z,25.76
2019-02-15T14:18:14.179Z,26.90
2019-02-15T14:20:43.582Z,27.73
2019-02-15T14:23:14.106Z,28.62
2019-02-15T14:25:43.528Z,29.29
2019-02-15T14:28:31.881Z,29.65
2019-02-15T14:31:01.262Z,29.92
2019-02-15T14:33:30.715Z,30.29
2019-02-15T14:36:00.436Z,30.52
2019-02-15T14:38:37.062Z,30.79
2019-02-15T14:41:06.452Z,31.28
2019-02-15T14:43:35.753Z,31.82
2019-02-15T14:46:05.052Z,32.34
2019-02-15T14:48:34.330Z,32.01
2019-02-15T14:51:03.622Z,31.98
2019-02-15T14:53:33.093Z,32.03
2019-02-15T14:56:03.349Z,32.08
2019-02-15T14:58:32.855Z,31.80
2019-02-15T15:01:02.204Z,31.54
2019-02-15T15:03:31.825Z,31.50
2019-02-15T15:06:01.129Z,31.22
2019-02-15T15:08:30.830Z,31.21
2019-02-15T15:11:00.222Z,31.26
2019-02-15T15:13:29.545Z,31.22
2019-02-15T15:15:58.981Z,31.02
2019-02-15T15:18:28.247Z,30.78
2019-02-15T15:20:57.552Z,30.64
2019-02-15T15:23:26.957Z,30.39
2019-02-15T15:25:56.437Z,30.16
2019-02-15T15:28:25.739Z,29.61
2019-02-15T15:30:55.210Z,29.61
2019-02-15T15:33:24.724Z,28.56
2019-02-15T15:35:54.058Z,27.09
2019-02-15T15:38:23.418Z,26.13
2019-02-15T15:40:52.747Z,25.69
2019-02-15T15:43:22.019Z,25.37
2019-02-15T15:45:51.266Z,25.00
2019-02-15T15:48:22.761Z,24.44
2019-02-15T15:50:51.974Z,23.89
2019-02-15T15:53:21.462Z,23.09
2019-02-15T15:55:50.938Z,22.31
2019-02-15T15:58:20.217Z,21.72
2019-02-15T16:00:49.699Z,20.78
2019-02-15T16:03:19.099Z,19.75
2019-02-15T16:05:48.495Z,18.55
2019-02-15T16:08:17.856Z,17.40
2019-02-15T16:10:47.333Z,16.41
2019-02-15T16:13:16.872Z,15.58
2019-02-15T16:15:46.395Z,14.97
2019-02-15T16:18:15.844Z,14.44
2019-02-15T16:20:45.193Z,13.85
2019-02-15T16:23:14.767Z,13.29
2019-02-15T16:25:44.145Z,12.70
2019-02-15T16:28:13.678Z,12.14
2019-02-15T16:30:43.275Z,11.64
2019-02-15T16:33:12.715Z,11.21
2019-02-15T16:35:42.241Z,10.81
2019-02-15T16:38:11.626Z,10.41
2019-02-15T16:40:41.210Z,10.02
2019-02-15T16:43:10.932Z,9.72
2019-02-15T16:45:41.625Z,9.42
2019-02-15T16:48:11.097Z,9.13
2019-02-15T16:50:40.512Z,8.89
2019-02-15T16:53:09.991Z,8.63
2019-02-15T16:55:39.615Z,8.39
2019-02-15T16:58:09.000Z,8.14
2019-02-15T17:00:38.707Z,7.92
2019-02-15T17:03:08.330Z,7.76
2019-02-15T17:05:37.939Z,7.65
2019-02-15T17:08:07.455Z,7.54
2019-02-15T17:10:37.577Z,7.40
2019-02-15T17:13:07.161Z,7.29
2019-02-15T17:15:36.731Z,7.16
2019-02-15T17:18:06.380Z,7.02
2019-02-15T17:20:36.077Z,6.90
2019-02-15T17:23:05.664Z,6.79
2019-02-15T17:25:35.210Z,6.72
2019-02-15T17:28:04.639Z,6.69
2019-02-15T17:30:34.122Z,6.62
2019-02-15T17:33:03.644Z,6.51
2019-02-15T17:35:33.325Z,6.40
2019-02-15T17:38:03.171Z,6.30
2019-02-15T17:40:32.730Z,6.28
2019-02-15T17:43:02.379Z,6.26
2019-02-15T17:45:32.480Z,6.27
2019-02-15T17:48:02.054Z,6.24
2019-02-15T17:50:31.488Z,6.27
2019-02-15T17:53:01.142Z,6.28
2019-02-15T17:55:30.725Z,6.22
2019-02-15T17:58:00.696Z,6.19
2019-02-15T18:00:31.871Z,6.23
2019-02-15T18:03:01.472Z,6.29
2019-02-15T18:05:31.029Z,6.34
2019-02-15T18:08:00.622Z,6.37
2019-02-15T18:10:30.307Z,6.39
2019-02-15T18:13:00.318Z,6.42
2019-02-15T18:15:29.881Z,6.44
2019-02-15T18:17:59.477Z,6.47
2019-02-15T18:20:29.124Z,6.48
2019-02-15T18:22:58.754Z,6.48
2019-02-15T18:25:28.472Z,6.43
2019-02-15T18:27:57.963Z,6.37
2019-02-15T18:30:27.613Z,6.31
2019-02-15T18:32:57.276Z,6.25
2019-02-15T18:35:26.940Z,6.19
2019-02-15T18:37:56.595Z,6.14
2019-02-15T18:40:26.201Z,6.07
2019-02-15T18:42:55.857Z,6.03
2019-02-15T18:45:25.493Z,6.01
2019-02-15T18:47:55.204Z,5.97
2019-02-15T18:50:24.821Z,5.93
2019-02-15T18:52:54.531Z,5.91
2019-02-15T18:55:24.149Z,5.86
2019-02-15T18:57:53.911Z,5.79
2019-02-15T19:00:23.498Z,5.84
2019-02-15T19:02:53.357Z,5.87
2019-02-15T19:05:23.092Z,5.89
2019-02-15T19:07:52.913Z,5.87
2019-02-15T19:10:22.649Z,5.88
2019-02-15T19:12:52.287Z,5.85
2019-02-15T19:15:22.029Z,5.81
2019-02-15T19:17:51.784Z,5.77
2019-02-15T19:20:21.483Z,5.72
2019-02-15T19:22:51.129Z,5.74
2019-02-15T19:25:21.031Z,5.70
2019-02-15T19:27:50.683Z,5.64
2019-02-15T19:30:22.000Z,5.59
2019-02-15T19:32:52.198Z,5.54
2019-02-15T19:35:23.428Z,5.59
2019-02-15T19:37:54.490Z,5.56
2019-02-15T19:40:23.966Z,5.53
2019-02-15T19:42:54.374Z,5.52
2019-02-15T19:45:24.314Z,5.45
2019-02-15T19:47:53.980Z,5.39
2019-02-15T19:50:23.536Z,5.37
2019-02-15T19:52:53.345Z,5.34
2019-02-15T19:55:23.117Z,5.32
2019-02-15T19:57:53.096Z,5.27
2019-02-15T20:00:22.742Z,5.24
2019-02-15T20:02:52.404Z,5.22
2019-02-15T20:05:22.170Z,5.25
2019-02-15T20:07:51.894Z,5.25
2019-02-15T20:10:22.199Z,5.19
2019-02-15T20:12:53.147Z,5.23
2019-02-15T20:15:22.697Z,5.18
2019-02-15T20:17:52.397Z,5.17
2019-02-15T20:20:22.010Z,5.12
2019-02-15T20:22:51.698Z,5.03
2019-02-15T20:25:21.653Z,5.00
2019-02-15T20:27:51.942Z,4.97
2019-02-15T20:30:21.876Z,4.97
2019-02-15T20:32:51.636Z,4.97
2019-02-15T20:35:21.457Z,4.95
2019-02-15T20:37:52.171Z,4.93
2019-02-15T20:40:22.283Z,4.92
2019-02-15T20:42:51.956Z,4.93
2019-02-15T20:45:22.006Z,4.88
2019-02-15T20:47:51.705Z,4.82
2019-02-15T20:50:21.624Z,4.75
2019-02-15T20:52:51.277Z,4.69
2019-02-15T20:55:21.005Z,4.64
2019-02-15T20:57:50.693Z,4.60
2019-02-15T21:00:22.654Z,4.62
2019-02-15T21:02:52.451Z,4.63
2019-02-15T21:05:22.057Z,4.73
2019-02-15T21:07:53.992Z,4.72
2019-02-15T21:10:23.676Z,4.66
2019-02-15T21:12:53.355Z,4.59
2019-02-15T21:15:24.327Z,4.53
2019-02-15T21:17:54.076Z,4.48
2019-02-15T21:20:24.669Z,4.39
2019-02-15T21:22:54.650Z,4.33
2019-02-15T21:25:24.641Z,4.29
2019-02-15T21:27:54.288Z,4.27
2019-02-15T21:30:23.890Z,4.29
2019-02-15T21:32:53.476Z,4.34
2019-02-15T21:35:23.236Z,4.36
2019-02-15T21:37:52.827Z,4.37
2019-02-15T21:40:22.563Z,4.38
2019-02-15T21:42:52.353Z,4.38
2019-02-15T21:45:22.096Z,4.36
2019-02-15T21:47:51.813Z,4.28
2019-02-15T21:50:21.392Z,4.21
2019-02-15T21:52:51.103Z,4.16
2019-02-15T21:55:20.794Z,4.17
2019-02-15T21:57:50.512Z,4.24
2019-02-15T22:00:20.309Z,4.19
2019-02-15T22:02:49.870Z,4.19
2019-02-15T22:05:19.416Z,4.17
2019-02-15T22:07:48.950Z,4.07
2019-02-15T22:10:18.522Z,3.93
2019-02-15T22:12:48.097Z,3.80
2019-02-15T22:15:17.777Z,3.70
2019-02-15T22:17:47.270Z,3.70
2019-02-15T22:20:25.973Z,3.65
2019-02-15T22:22:48.241Z,3.59
2019-02-15T22:25:17.447Z,3.56
2019-02-15T22:27:46.731Z,3.55
2019-02-15T22:30:16.128Z,3.51
2019-02-15T22:32:45.576Z,3.48
2019-02-15T22:35:14.900Z,3.52
2019-02-15T22:37:44.178Z,3.49
2019-02-15T22:40:29.943Z,3.41
2019-02-15T22:43:01.178Z,3.36
2019-02-15T22:45:30.589Z,3.36
2019-02-15T22:47:59.817Z,3.30
2019-02-15T22:50:35.659Z,3.26
2019-02-15T22:53:00.331Z,3.18
2019-02-15T22:55:29.536Z,3.25
2019-02-15T22:57:59.222Z,3.23
2019-02-15T23:00:53.291Z,3.16
2019-02-15T23:03:24.511Z,3.12
2019-02-15T23:05:53.868Z,3.11
2019-02-15T23:08:23.193Z,3.07
2019-02-15T23:10:52.528Z,3.11
2019-02-15T23:13:21.748Z,3.18
2019-02-15T23:15:51.012Z,3.14
2019-02-15T23:18:20.490Z,3.10
2019-02-15T23:20:49.894Z,3.09
2019-02-15T23:23:19.277Z,3.05
2019-02-15T23:25:48.471Z,2.96
2019-02-15T23:28:17.764Z,2.90
2019-02-15T23:30:46.938Z,2.85
2019-02-15T23:33:16.316Z,2.80
2019-02-15T23:35:45.635Z,2.76
2019-02-15T23:38:14.960Z,2.72
2019-02-15T23:40:44.193Z,2.59
2019-02-15T23:43:13.553Z,2.47
2019-02-15T23:45:44.917Z,2.41
2019-02-15T23:48:13.841Z,2.39
2019-02-15T23:50:43.153Z,2.38
2019-02-15T23:53:12.367Z,2.33
2019-02-15T23:55:41.559Z,2.34
2019-02-15T23:58:10.810Z,2.32
